sensor_id;sensor_type;location;lat;lon;timestamp;pressure;altitude;pressure_sealevel;temperature;humidity
21547;BME280;41275;51.912;4.388;2023-02-14T00:05:06;103436.84;;;12.34;49.87
21547;BME280;41275;51.912;4.388;2023-02-14T00:10:28;103439.06;;;12.30;49.80
21547;BME280;41275;51.912;4.388;2023-02-14T00:15:49;103440.22;;;12.27;50.16
21547;BME280;41275;51.912;4.388;2023-02-14T00:21:10;103435.09;;;12.18;49.94
21547;BME280;41275;51.912;4.388;2023-02-14T00:26:31;103432.44;;;12.18;49.93
21547;BME280;41275;51.912;4.388;2023-02-14T00:31:53;103413.91;;;12.10;50.01
21547;BME280;41275;51.912;4.388;2023-02-14T00:37:14;103425.53;;;12.09;50.33
21547;BME280;41275;51.912;4.388;2023-02-14T00:42:35;103416.09;;;12.06;50.22
21547;BME280;41275;51.912;4.388;2023-02-14T00:47:56;103408.13;;;12.06;50.42
21547;BME280;41275;51.912;4.388;2023-02-14T00:53:18;103408.63;;;12.01;50.08
21547;BME280;41275;51.912;4.388;2023-02-14T00:58:39;103414.28;;;11.98;50.31
21547;BME280;41275;51.912;4.388;2023-02-14T01:04:00;103403.56;;;11.92;50.23
21547;BME280;41275;51.912;4.388;2023-02-14T01:09:22;103401.56;;;11.86;50.24
21547;BME280;41275;51.912;4.388;2023-02-14T01:14:43;103399.22;;;11.83;50.59
21547;BME280;41275;51.912;4.388;2023-02-14T01:20:05;103391.97;;;11.76;50.27
21547;BME280;41275;51.912;4.388;2023-02-14T01:25:27;103393.13;;;11.74;50.49
21547;BME280;41275;51.912;4.388;2023-02-14T01:30:48;103396.59;;;11.74;50.65
21547;BME280;41275;51.912;4.388;2023-02-14T01:36:21;103387.19;;;11.72;50.77
21547;BME280;41275;51.912;4.388;2023-02-14T01:41:44;103392.00;;;11.68;50.53
21547;BME280;41275;51.912;4.388;2023-02-14T01:47:09;103391.69;;;11.63;50.71
21547;BME280;41275;51.912;4.388;2023-02-14T01:52:34;103393.69;;;11.61;51.07
21547;BME280;41275;51.912;4.388;2023-02-14T01:58:06;103386.38;;;11.63;51.02
21547;BME280;41275;51.912;4.388;2023-02-14T02:03:32;103393.16;;;11.66;51.07
21547;BME280;41275;51.912;4.388;2023-02-14T02:14:54;103387.69;;;11.59;51.32
21547;BME280;41275;51.912;4.388;2023-02-14T02:26:05;103394.00;;;11.58;51.33
21547;BME280;41275;51.912;4.388;2023-02-14T02:55:21;103372.34;;;11.38;51.61
21547;BME280;41275;51.912;4.388;2023-02-14T03:00:46;103376.16;;;11.36;51.77
21547;BME280;41275;51.912;4.388;2023-02-14T03:06:08;103370.22;;;11.34;52.11
21547;BME280;41275;51.912;4.388;2023-02-14T03:11:30;103372.00;;;11.41;51.57
21547;BME280;41275;51.912;4.388;2023-02-14T03:17:03;103372.34;;;11.38;51.50
21547;BME280;41275;51.912;4.388;2023-02-14T03:22:40;103368.69;;;11.39;51.84
21547;BME280;41275;51.912;4.388;2023-02-14T03:33:58;103371.03;;;11.34;51.85
21547;BME280;41275;51.912;4.388;2023-02-14T03:44:46;103361.59;;;11.23;51.65
21547;BME280;41275;51.912;4.388;2023-02-14T03:50:13;103355.97;;;11.18;52.00
21547;BME280;41275;51.912;4.388;2023-02-14T03:55:40;103358.81;;;11.17;51.91
21547;BME280;41275;51.912;4.388;2023-02-14T04:01:15;103360.47;;;11.10;52.23
21547;BME280;41275;51.912;4.388;2023-02-14T04:06:37;103355.00;;;11.11;52.24
21547;BME280;41275;51.912;4.388;2023-02-14T04:11:58;103358.84;;;11.09;52.47
21547;BME280;41275;51.912;4.388;2023-02-14T04:17:19;103348.38;;;11.07;52.63
21547;BME280;41275;51.912;4.388;2023-02-14T04:22:59;103346.41;;;11.09;52.52
21547;BME280;41275;51.912;4.388;2023-02-14T04:28:20;103350.88;;;11.09;52.69
21547;BME280;41275;51.912;4.388;2023-02-14T04:33:42;103346.56;;;10.99;52.81
21547;BME280;41275;51.912;4.388;2023-02-14T04:39:05;103343.09;;;10.99;53.04
21547;BME280;41275;51.912;4.388;2023-02-14T04:44:27;103348.25;;;11.00;52.57
21547;BME280;41275;51.912;4.388;2023-02-14T04:49:48;103343.09;;;10.99;52.82
21547;BME280;41275;51.912;4.388;2023-02-14T04:55:09;103344.59;;;11.01;52.88
21547;BME280;41275;51.912;4.388;2023-02-14T05:00:31;103351.38;;;10.96;53.14
21547;BME280;41275;51.912;4.388;2023-02-14T05:05:52;103354.53;;;10.91;53.15
21547;BME280;41275;51.912;4.388;2023-02-14T05:11:13;103345.91;;;10.97;53.16
21547;BME280;41275;51.912;4.388;2023-02-14T05:16:35;103350.41;;;10.97;52.98
21547;BME280;41275;51.912;4.388;2023-02-14T05:21:56;103345.25;;;10.95;52.91
21547;BME280;41275;51.912;4.388;2023-02-14T05:27:17;103341.78;;;10.87;52.86
21547;BME280;41275;51.912;4.388;2023-02-14T05:32:38;103348.22;;;10.84;53.42
21547;BME280;41275;51.912;4.388;2023-02-14T05:37:59;103344.44;;;10.78;53.14
21547;BME280;41275;51.912;4.388;2023-02-14T05:43:21;103338.00;;;10.73;53.21
21547;BME280;41275;51.912;4.388;2023-02-14T05:48:42;103336.50;;;10.70;52.83
21547;BME280;41275;51.912;4.388;2023-02-14T05:54:04;103335.81;;;10.68;53.11
21547;BME280;41275;51.912;4.388;2023-02-14T05:59:25;103350.38;;;10.64;52.93
21547;BME280;41275;51.912;4.388;2023-02-14T06:04:46;103337.31;;;10.54;53.03
21547;BME280;41275;51.912;4.388;2023-02-14T06:10:08;103331.84;;;10.56;53.18
21547;BME280;41275;51.912;4.388;2023-02-14T06:15:30;103337.00;;;10.57;52.89
21547;BME280;41275;51.912;4.388;2023-02-14T06:20:52;103333.50;;;10.57;53.13
21547;BME280;41275;51.912;4.388;2023-02-14T06:26:13;103337.13;;;10.56;53.61
21547;BME280;41275;51.912;4.388;2023-02-14T06:31:34;103337.63;;;10.60;53.88
21547;BME280;41275;51.912;4.388;2023-02-14T06:36:55;103338.47;;;10.60;53.73
21547;BME280;41275;51.912;4.388;2023-02-14T06:42:17;103337.63;;;10.60;53.55
21547;BME280;41275;51.912;4.388;2023-02-14T06:47:38;103337.81;;;10.58;53.64
21547;BME280;41275;51.912;4.388;2023-02-14T06:52:59;103342.78;;;10.61;53.66
21547;BME280;41275;51.912;4.388;2023-02-14T06:58:21;103342.63;;;10.63;53.39
21547;BME280;41275;51.912;4.388;2023-02-14T07:03:42;103349.88;;;10.69;53.80
21547;BME280;41275;51.912;4.388;2023-02-14T07:09:04;103355.03;;;10.70;54.00
21547;BME280;41275;51.912;4.388;2023-02-14T07:14:25;103350.72;;;10.69;53.85
21547;BME280;41275;51.912;4.388;2023-02-14T07:19:46;103354.34;;;10.76;54.05
21547;BME280;41275;51.912;4.388;2023-02-14T07:25:07;103354.69;;;10.81;53.84
21547;BME280;41275;51.912;4.388;2023-02-14T07:30:29;103362.66;;;10.90;53.94
21547;BME280;41275;51.912;4.388;2023-02-14T07:35:50;103360.31;;;10.95;54.02
21547;BME280;41275;51.912;4.388;2023-02-14T07:41:11;103359.00;;;10.99;53.57
21547;BME280;41275;51.912;4.388;2023-02-14T07:46:33;103354.50;;;11.07;53.75
21547;BME280;41275;51.912;4.388;2023-02-14T07:51:54;103355.34;;;11.16;53.66
21547;BME280;41275;51.912;4.388;2023-02-14T07:57:16;103350.66;;;11.26;53.98
21547;BME280;41275;51.912;4.388;2023-02-14T08:02:37;103354.78;;;11.37;53.73
21547;BME280;41275;51.912;4.388;2023-02-14T08:07:58;103351.94;;;11.47;53.54
21547;BME280;41275;51.912;4.388;2023-02-14T08:13:20;103351.56;;;11.58;53.41
21547;BME280;41275;51.912;4.388;2023-02-14T08:18:41;103361.81;;;11.69;53.58
21547;BME280;41275;51.912;4.388;2023-02-14T08:24:02;103356.78;;;11.83;53.37
21547;BME280;41275;51.912;4.388;2023-02-14T08:29:24;103359.41;;;11.99;53.39
21547;BME280;41275;51.912;4.388;2023-02-14T08:34:46;103348.56;;;12.09;53.46
21547;BME280;41275;51.912;4.388;2023-02-14T08:40:07;103352.00;;;12.17;53.28
21547;BME280;41275;51.912;4.388;2023-02-14T08:45:28;103348.94;;;12.28;52.89
21547;BME280;41275;51.912;4.388;2023-02-14T08:50:50;103359.09;;;12.48;52.85
21547;BME280;41275;51.912;4.388;2023-02-14T08:56:12;103356.09;;;12.74;52.53
21547;BME280;41275;51.912;4.388;2023-02-14T09:01:34;103351.25;;;13.30;52.01
21547;BME280;41275;51.912;4.388;2023-02-14T09:06:56;103347.84;;;13.81;51.66
21547;BME280;41275;51.912;4.388;2023-02-14T09:12:17;103351.31;;;14.17;50.21
21547;BME280;41275;51.912;4.388;2023-02-14T09:17:39;103347.81;;;13.95;49.65
21547;BME280;41275;51.912;4.388;2023-02-14T09:23:00;103346.09;;;13.88;49.23
21547;BME280;41275;51.912;4.388;2023-02-14T09:28:21;103342.63;;;13.87;49.18
21547;BME280;41275;51.912;4.388;2023-02-14T09:33:44;103343.94;;;13.98;48.82
21547;BME280;41275;51.912;4.388;2023-02-14T09:39:05;103340.06;;;14.15;48.63
21547;BME280;41275;51.912;4.388;2023-02-14T09:44:37;103349.88;;;14.36;48.48
21547;BME280;41275;51.912;4.388;2023-02-14T09:50:02;103344.63;;;14.43;48.05
21547;BME280;41275;51.912;4.388;2023-02-14T09:55:28;103355.31;;;14.64;47.80
21547;BME280;41275;51.912;4.388;2023-02-14T10:11:59;103350.00;;;14.92;46.65
21547;BME280;41275;51.912;4.388;2023-02-14T10:17:42;103347.66;;;15.11;46.09
21547;BME280;41275;51.912;4.388;2023-02-14T10:23:19;103338.59;;;15.40;45.95
21547;BME280;41275;51.912;4.388;2023-02-14T10:28:45;103340.75;;;15.58;45.62
21547;BME280;41275;51.912;4.388;2023-02-14T10:34:15;103328.31;;;15.65;45.87
21547;BME280;41275;51.912;4.388;2023-02-14T10:40:21;103344.38;;;15.78;45.09
21547;BME280;41275;51.912;4.388;2023-02-14T10:45:52;103325.53;;;15.93;45.15
21547;BME280;41275;51.912;4.388;2023-02-14T10:51:25;103326.56;;;16.05;44.87
21547;BME280;41275;51.912;4.388;2023-02-14T10:57:18;103323.53;;;16.22;45.24
21547;BME280;41275;51.912;4.388;2023-02-14T11:02:46;103320.47;;;16.38;44.64
21547;BME280;41275;51.912;4.388;2023-02-14T11:08:37;103320.06;;;16.54;44.21
21547;BME280;41275;51.912;4.388;2023-02-14T11:14:18;103308.75;;;16.52;44.26
21547;BME280;41275;51.912;4.388;2023-02-14T11:19:39;103298.06;;;16.65;44.35
21547;BME280;41275;51.912;4.388;2023-02-14T11:25:05;103306.72;;;16.87;44.02
21547;BME280;41275;51.912;4.388;2023-02-14T11:30:32;103298.69;;;16.94;43.67
21547;BME280;41275;51.912;4.388;2023-02-14T11:35:54;103294.28;;;17.20;43.45
21547;BME280;41275;51.912;4.388;2023-02-14T11:41:15;103281.09;;;17.31;42.94
21547;BME280;41275;51.912;4.388;2023-02-14T11:46:37;103273.28;;;17.30;42.99
21547;BME280;41275;51.912;4.388;2023-02-14T11:52:08;103256.56;;;17.34;43.11
21547;BME280;41275;51.912;4.388;2023-02-14T11:57:39;103246.28;;;17.38;42.56
21547;BME280;41275;51.912;4.388;2023-02-14T12:03:02;103246.59;;;17.55;42.65
21547;BME280;41275;51.912;4.388;2023-02-14T12:08:28;103232.53;;;17.66;42.08
21547;BME280;41275;51.912;4.388;2023-02-14T12:13:57;103228.38;;;17.77;42.12
21547;BME280;41275;51.912;4.388;2023-02-14T12:19:27;103218.38;;;17.90;41.69
21547;BME280;41275;51.912;4.388;2023-02-14T12:25:05;103222.13;;;18.14;41.74
21547;BME280;41275;51.912;4.388;2023-02-14T12:30:32;103209.84;;;18.69;41.98
21547;BME280;41275;51.912;4.388;2023-02-14T12:35:58;103203.56;;;19.90;41.03
21547;BME280;41275;51.912;4.388;2023-02-14T12:52:46;103191.97;;;22.75;35.09
21547;BME280;41275;51.912;4.388;2023-02-14T12:58:20;103184.75;;;23.30;34.04
21547;BME280;41275;51.912;4.388;2023-02-14T13:25:59;103162.47;;;25.55;29.38
21547;BME280;41275;51.912;4.388;2023-02-14T13:31:23;103158.66;;;25.87;28.96
21547;BME280;41275;51.912;4.388;2023-02-14T13:36:45;103155.13;;;26.02;28.45
21547;BME280;41275;51.912;4.388;2023-02-14T13:42:07;103150.75;;;26.11;28.30
21547;BME280;41275;51.912;4.388;2023-02-14T13:47:28;103143.56;;;26.40;27.71
21547;BME280;41275;51.912;4.388;2023-02-14T13:52:49;103141.22;;;26.18;27.68
21547;BME280;41275;51.912;4.388;2023-02-14T13:58:17;103132.56;;;26.01;27.95
21547;BME280;41275;51.912;4.388;2023-02-14T14:09:02;103139.66;;;26.02;27.74
21547;BME280;41275;51.912;4.388;2023-02-14T14:15:25;103129.47;;;26.38;27.82
21547;BME280;41275;51.912;4.388;2023-02-14T14:20:47;103122.28;;;26.73;27.21
21547;BME280;41275;51.912;4.388;2023-02-14T14:26:33;103125.00;;;26.73;26.84
21547;BME280;41275;51.912;4.388;2023-02-14T14:31:56;103119.41;;;26.54;27.39
21547;BME280;41275;51.912;4.388;2023-02-14T14:37:23;103126.16;;;26.62;27.31
21547;BME280;41275;51.912;4.388;2023-02-14T14:42:44;103110.69;;;26.57;27.28
21547;BME280;41275;51.912;4.388;2023-02-14T14:48:12;103110.22;;;26.45;27.41
21547;BME280;41275;51.912;4.388;2023-02-14T14:53:47;103108.66;;;26.18;27.91
21547;BME280;41275;51.912;4.388;2023-02-14T14:59:32;103111.59;;;26.27;27.62
21547;BME280;41275;51.912;4.388;2023-02-14T15:05:18;103114.31;;;24.64;28.43
21547;BME280;41275;51.912;4.388;2023-02-14T15:10:57;103103.31;;;22.89;30.61
21547;BME280;41275;51.912;4.388;2023-02-14T15:21:52;103111.06;;;21.02;33.47
21547;BME280;41275;51.912;4.388;2023-02-14T15:27:22;103106.44;;;20.57;34.56
21547;BME280;41275;51.912;4.388;2023-02-14T15:32:44;103106.13;;;20.06;35.29
21547;BME280;41275;51.912;4.388;2023-02-14T15:38:09;103102.38;;;19.72;36.07
21547;BME280;41275;51.912;4.388;2023-02-14T15:43:35;103083.78;;;19.17;37.33
21547;BME280;41275;51.912;4.388;2023-02-14T15:48:58;103090.03;;;18.99;37.47
21547;BME280;41275;51.912;4.388;2023-02-14T15:59:55;103074.94;;;18.86;38.21
21547;BME280;41275;51.912;4.388;2023-02-14T16:05:19;103069.78;;;18.85;38.03
21547;BME280;41275;51.912;4.388;2023-02-14T16:10:41;103064.41;;;18.67;38.51
21547;BME280;41275;51.912;4.388;2023-02-14T16:16:05;103085.97;;;18.60;38.96
21547;BME280;41275;51.912;4.388;2023-02-14T16:21:28;103090.22;;;18.49;39.29
21547;BME280;41275;51.912;4.388;2023-02-14T16:26:52;103068.31;;;18.34;39.59
21547;BME280;41275;51.912;4.388;2023-02-14T16:32:19;103068.69;;;18.19;40.17
21547;BME280;41275;51.912;4.388;2023-02-14T16:37:44;103055.34;;;17.94;40.24
21547;BME280;41275;51.912;4.388;2023-02-14T16:43:10;103055.50;;;17.81;40.85
21547;BME280;41275;51.912;4.388;2023-02-14T16:48:32;103053.94;;;17.66;41.40
21547;BME280;41275;51.912;4.388;2023-02-14T16:53:55;103060.88;;;17.49;41.61
21547;BME280;41275;51.912;4.388;2023-02-14T16:59:18;103051.16;;;17.30;42.05
21547;BME280;41275;51.912;4.388;2023-02-14T17:04:39;103069.38;;;17.14;42.64
21547;BME280;41275;51.912;4.388;2023-02-14T17:10:05;103064.91;;;17.02;43.04
21547;BME280;41275;51.912;4.388;2023-02-14T17:15:28;103062.53;;;16.87;43.47
21547;BME280;41275;51.912;4.388;2023-02-14T17:20:49;103073.25;;;16.74;43.52
21547;BME280;41275;51.912;4.388;2023-02-14T17:26:10;103068.19;;;16.59;43.70
21547;BME280;41275;51.912;4.388;2023-02-14T17:31:32;103070.69;;;16.47;44.14
21547;BME280;41275;51.912;4.388;2023-02-14T17:36:54;103079.34;;;16.36;44.57
21547;BME280;41275;51.912;4.388;2023-02-14T17:42:15;103074.03;;;16.23;44.64
21547;BME280;41275;51.912;4.388;2023-02-14T17:47:38;103068.50;;;16.11;44.90
21547;BME280;41275;51.912;4.388;2023-02-14T17:53:00;103067.31;;;16.00;45.41
21547;BME280;41275;51.912;4.388;2023-02-14T17:58:22;103064.44;;;15.88;45.56
21547;BME280;41275;51.912;4.388;2023-02-14T18:03:43;103058.69;;;15.78;45.55
21547;BME280;41275;51.912;4.388;2023-02-14T18:09:05;103069.16;;;15.66;46.17
21547;BME280;41275;51.912;4.388;2023-02-14T18:14:26;103069.75;;;15.55;46.07
21547;BME280;41275;51.912;4.388;2023-02-14T18:19:47;103069.56;;;15.50;46.19
21547;BME280;41275;51.912;4.388;2023-02-14T18:25:09;103054.13;;;15.39;46.76
21547;BME280;41275;51.912;4.388;2023-02-14T18:30:30;103066.88;;;15.30;47.16
21547;BME280;41275;51.912;4.388;2023-02-14T18:35:51;103050.03;;;15.23;47.22
21547;BME280;41275;51.912;4.388;2023-02-14T18:41:14;103060.28;;;15.19;47.23
21547;BME280;41275;51.912;4.388;2023-02-14T18:46:36;103066.19;;;15.08;47.05
21547;BME280;41275;51.912;4.388;2023-02-14T18:51:57;103055.72;;;15.00;47.51
21547;BME280;41275;51.912;4.388;2023-02-14T18:57:19;103057.97;;;14.90;47.33
21547;BME280;41275;51.912;4.388;2023-02-14T19:02:40;103052.59;;;14.83;47.44
21547;BME280;41275;51.912;4.388;2023-02-14T19:08:02;103045.16;;;14.72;48.18
21547;BME280;41275;51.912;4.388;2023-02-14T19:13:23;103046.38;;;14.69;47.97
21547;BME280;41275;51.912;4.388;2023-02-14T19:18:48;103043.28;;;14.59;48.03
21547;BME280;41275;51.912;4.388;2023-02-14T19:24:10;103036.06;;;14.53;48.31
21547;BME280;41275;51.912;4.388;2023-02-14T19:29:31;103028.44;;;14.43;48.37
21547;BME280;41275;51.912;4.388;2023-02-14T19:34:53;103034.34;;;14.39;48.57
21547;BME280;41275;51.912;4.388;2023-02-14T19:40:14;103025.91;;;14.29;48.80
21547;BME280;41275;51.912;4.388;2023-02-14T19:45:37;103038.59;;;14.27;48.73
21547;BME280;41275;51.912;4.388;2023-02-14T19:50:58;103025.41;;;14.18;48.69
21547;BME280;41275;51.912;4.388;2023-02-14T19:56:24;103021.72;;;14.13;48.92
21547;BME280;41275;51.912;4.388;2023-02-14T20:01:48;103014.31;;;14.08;48.63
21547;BME280;41275;51.912;4.388;2023-02-14T20:07:10;103009.38;;;14.05;48.82
21547;BME280;41275;51.912;4.388;2023-02-14T20:12:31;102997.63;;;13.93;49.18
21547;BME280;41275;51.912;4.388;2023-02-14T20:17:53;102995.13;;;13.85;49.28
21547;BME280;41275;51.912;4.388;2023-02-14T20:23:14;102991.00;;;13.82;49.36
21547;BME280;41275;51.912;4.388;2023-02-14T20:28:35;102993.81;;;13.74;49.09
21547;BME280;41275;51.912;4.388;2023-02-14T20:33:57;102991.16;;;13.74;49.17
21547;BME280;41275;51.912;4.388;2023-02-14T20:39:19;102984.75;;;13.62;49.30
21547;BME280;41275;51.912;4.388;2023-02-14T20:44:41;102980.81;;;13.58;49.56
21547;BME280;41275;51.912;4.388;2023-02-14T20:50:02;102978.38;;;13.56;49.40
21547;BME280;41275;51.912;4.388;2023-02-14T20:55:23;102965.81;;;13.50;49.46
21547;BME280;41275;51.912;4.388;2023-02-14T21:00:47;102968.88;;;13.47;49.60
21547;BME280;41275;51.912;4.388;2023-02-14T21:06:09;102964.34;;;13.41;49.44
21547;BME280;41275;51.912;4.388;2023-02-14T21:11:33;102973.84;;;13.29;49.75
21547;BME280;41275;51.912;4.388;2023-02-14T21:16:54;102971.28;;;13.20;50.13
21547;BME280;41275;51.912;4.388;2023-02-14T21:22:16;102963.88;;;13.16;50.75
21547;BME280;41275;51.912;4.388;2023-02-14T21:27:37;102963.50;;;13.19;50.60
21547;BME280;41275;51.912;4.388;2023-02-14T21:33:01;102954.63;;;13.12;50.77
21547;BME280;41275;51.912;4.388;2023-02-14T21:38:22;102949.91;;;13.07;50.61
21547;BME280;41275;51.912;4.388;2023-02-14T21:43:46;102947.59;;;13.04;50.62
21547;BME280;41275;51.912;4.388;2023-02-14T21:49:07;102951.94;;;13.05;50.44
21547;BME280;41275;51.912;4.388;2023-02-14T21:54:47;102945.22;;;13.09;50.27
21547;BME280;41275;51.912;4.388;2023-02-14T22:00:08;102946.34;;;13.00;50.22
21547;BME280;41275;51.912;4.388;2023-02-14T22:05:29;102949.94;;;12.92;50.18
21547;BME280;41275;51.912;4.388;2023-02-14T22:10:51;102934.59;;;12.88;50.56
21547;BME280;41275;51.912;4.388;2023-02-14T22:16:14;102945.72;;;12.76;50.87
21547;BME280;41275;51.912;4.388;2023-02-14T22:21:36;102931.00;;;12.74;50.79
21547;BME280;41275;51.912;4.388;2023-02-14T22:26:57;102938.63;;;12.62;50.77
21547;BME280;41275;51.912;4.388;2023-02-14T22:32:18;102931.59;;;12.55;50.90
21547;BME280;41275;51.912;4.388;2023-02-14T22:37:39;102924.63;;;12.53;51.03
21547;BME280;41275;51.912;4.388;2023-02-14T22:43:01;102942.78;;;12.50;50.93
21547;BME280;41275;51.912;4.388;2023-02-14T22:48:22;102944.88;;;12.55;50.75
21547;BME280;41275;51.912;4.388;2023-02-14T22:53:43;102928.25;;;12.46;50.95
21547;BME280;41275;51.912;4.388;2023-02-14T22:59:19;102927.50;;;12.37;50.84
21547;BME280;41275;51.912;4.388;2023-02-14T23:04:40;102917.44;;;12.33;51.08
21547;BME280;41275;51.912;4.388;2023-02-14T23:10:02;102910.69;;;12.30;51.42
21547;BME280;41275;51.912;4.388;2023-02-14T23:15:23;102904.53;;;12.29;51.25
21547;BME280;41275;51.912;4.388;2023-02-14T23:21:11;102910.69;;;12.30;50.92
21547;BME280;41275;51.912;4.388;2023-02-14T23:26:52;102908.78;;;12.24;50.69
21547;BME280;41275;51.912;4.388;2023-02-14T23:32:14;102918.31;;;12.18;50.79
21547;BME280;41275;51.912;4.388;2023-02-14T23:37:36;102907.63;;;12.12;51.36
21547;BME280;41275;51.912;4.388;2023-02-14T23:42:58;102904.31;;;12.10;50.67
21547;BME280;41275;51.912;4.388;2023-02-14T23:48:19;102883.75;;;11.97;51.01
21547;BME280;41275;51.912;4.388;2023-02-14T23:53:40;102889.88;;;11.97;51.16
21547;BME280;41275;51.912;4.388;2023-02-14T23:59:05;102879.44;;;11.96;51.10
